Time;durP1;ratioP1;P1;durP2;ratioP2;P2;SDS_P1;SDS_P2;PMS_P1;PMS_P2;Temp;Humidity;BMP_temperature;BMP_pressure;BME280_temperature;BME280_humidity;BME280_pressure;Samples;Min_cycle;Max_cycle;Signal;HPM_P1;HPM_P2
2022/06/18 00:00:42;;;;;;;2.08;0.70;;;20.00;99.90;;;;;;4975535;28;20479;-89
2022/06/18 00:03:09;;;;;;;0.98;0.60;;;19.90;99.90;;;;;;4975909;28;20138;-92
2022/06/18 00:05:38;;;;;;;0.88;0.50;;;19.90;99.90;;;;;;4976226;28;20050;-92
2022/06/18 00:08:11;;;;;;;1.52;0.77;;;19.90;99.90;;;;;;4974957;28;20050;-91
2022/06/18 00:10:37;;;;;;;1.20;0.63;;;19.90;99.90;;;;;;4974820;28;20049;-91
2022/06/18 00:13:41;;;;;;;1.30;0.60;;;19.90;99.90;;;;;;4976140;28;20047;-91
2022/06/18 00:16:13;;;;;;;0.73;0.60;;;19.80;99.90;;;;;;4978504;28;20058;-91
2022/06/18 00:18:40;;;;;;;1.48;0.80;;;19.80;99.90;;;;;;4978352;28;20396;-92
2022/06/18 00:21:08;;;;;;;1.00;0.70;;;19.70;99.90;;;;;;4993892;28;20093;-90
2022/06/18 00:23:34;;;;;;;0.90;0.70;;;19.80;99.90;;;;;;4994140;28;20057;-91
2022/06/18 00:25:59;;;;;;;1.27;0.80;;;19.70;99.90;;;;;;4992796;28;20038;-92
2022/06/18 00:28:29;;;;;;;1.40;0.98;;;19.70;99.90;;;;;;4994101;28;20049;-91
2022/06/18 00:30:55;;;;;;;2.55;1.23;;;19.70;99.90;;;;;;4976515;28;20049;-91
2022/06/18 00:33:22;;;;;;;2.13;1.27;;;19.80;99.90;;;;;;4997623;28;20038;-90
2022/06/18 00:35:50;;;;;;;1.40;0.80;;;19.80;99.90;;;;;;4998357;28;20085;-92
2022/06/18 00:38:29;;;;;;;1.70;0.70;;;19.80;99.90;;;;;;4998924;28;20053;-91
2022/06/18 00:40:56;;;;;;;2.30;1.00;;;19.80;99.90;;;;;;4993508;28;20074;-92
2022/06/18 00:43:39;;;;;;;1.95;1.40;;;19.80;99.90;;;;;;4974594;28;20034;-91
2022/06/18 00:46:14;;;;;;;2.80;1.08;;;19.80;99.90;;;;;;4976218;28;20050;-92
2022/06/18 00:48:54;;;;;;;3.22;1.20;;;19.80;99.90;;;;;;4974672;28;20050;-91
2022/06/18 00:51:28;;;;;;;2.13;1.20;;;19.80;99.90;;;;;;4973155;28;20558;-92
2022/06/18 00:54:05;;;;;;;2.00;1.63;;;19.90;99.90;;;;;;4974280;28;20051;-91
2022/06/18 00:56:41;;;;;;;3.67;1.10;;;19.90;99.90;;;;;;4989055;28;20046;-91
2022/06/18 00:59:43;;;;;;;4.25;1.30;;;19.90;99.90;;;;;;4992293;28;20479;-92
2022/06/18 01:02:21;;;;;;;2.95;1.25;;;19.90;99.90;;;;;;4898602;29;20056;-92
2022/06/18 01:04:47;;;;;;;1.23;1.10;;;19.90;99.90;;;;;;4914175;29;20416;-92
2022/06/18 01:07:32;;;;;;;1.60;1.00;;;19.80;99.90;;;;;;4914133;29;20065;-91
2022/06/18 01:10:00;;;;;;;1.67;0.90;;;19.80;99.90;;;;;;4914884;29;20055;-92
2022/06/18 01:12:26;;;;;;;2.42;1.20;;;19.70;99.90;;;;;;4898589;29;20052;-92
2022/06/18 01:15:00;;;;;;;3.17;1.55;;;19.70;99.90;;;;;;4913605;29;20052;-91
2022/06/18 01:17:26;;;;;;;2.83;1.95;;;19.60;99.90;;;;;;4898974;29;20056;-90
2022/06/18 01:19:52;;;;;;;2.38;1.38;;;19.70;99.90;;;;;;4899100;29;20070;-92
2022/06/18 01:22:18;;;;;;;3.58;1.58;;;19.60;99.90;;;;;;4914237;29;20173;-91
2022/06/18 01:24:44;;;;;;;3.60;1.50;;;19.60;99.90;;;;;;4913290;29;20524;-90
2022/06/18 01:27:10;;;;;;;6.10;1.98;;;19.50;99.90;;;;;;4913985;29;20095;-91
2022/06/18 01:29:37;;;;;;;2.85;1.00;;;19.50;99.90;;;;;;4914889;29;20052;-90
2022/06/18 01:32:05;;;;;;;2.13;1.10;;;19.40;99.90;;;;;;4898529;29;20123;-92
2022/06/18 01:34:31;;;;;;;2.90;1.25;;;19.30;99.90;;;;;;4914403;29;20274;-89
2022/06/18 01:37:00;;;;;;;1.65;1.25;;;19.30;99.90;;;;;;4910734;29;20048;-92
2022/06/18 01:39:30;;;;;;;1.10;0.93;;;19.30;99.90;;;;;;4960327;28;20064;-90
2022/06/18 01:42:01;;;;;;;2.20;1.20;;;19.20;99.90;;;;;;4990583;28;20612;-88
2022/06/18 01:44:30;;;;;;;3.20;1.42;;;19.10;99.90;;;;;;4987829;28;20050;-92
2022/06/18 01:47:17;;;;;;;2.63;1.10;;;19.10;99.90;;;;;;4991513;28;20047;-86
2022/06/18 01:50:01;;;;;;;1.83;1.00;;;19.10;99.90;;;;;;4913677;29;20046;-91
2022/06/18 01:52:32;;;;;;;2.05;1.23;;;19.00;99.90;;;;;;4914054;29;20433;-91
2022/06/18 01:55:05;;;;;;;3.05;1.65;;;18.90;99.90;;;;;;4917555;29;20131;-91
2022/06/18 01:57:34;;;;;;;1.85;1.25;;;18.90;99.90;;;;;;4916314;29;20065;-90
2022/06/18 02:00:12;;;;;;;3.28;1.70;;;18.90;99.90;;;;;;4917495;29;20092;-89
2022/06/18 02:02:39;;;;;;;2.45;1.27;;;18.80;99.90;;;;;;4898569;29;20068;-91
2022/06/18 02:05:07;;;;;;;1.88;1.13;;;18.80;99.90;;;;;;4898697;29;20128;-90
2022/06/18 02:07:33;;;;;;;1.40;1.02;;;18.70;99.90;;;;;;4911045;29;20556;-91
2022/06/18 02:10:04;;;;;;;4.03;2.58;;;18.70;99.90;;;;;;4901787;29;20205;-91
2022/06/18 02:12:34;;;;;;;5.05;1.55;;;18.70;99.90;;;;;;4917000;29;20099;-91
2022/06/18 02:15:04;;;;;;;2.25;1.30;;;18.60;99.90;;;;;;4917710;29;20152;-90
2022/06/18 02:17:32;;;;;;;2.42;1.40;;;18.60;99.90;;;;;;4916365;29;20058;-82
2022/06/18 02:20:13;;;;;;;2.08;1.50;;;18.60;99.90;;;;;;4917635;29;20052;-90
2022/06/18 02:22:44;;;;;;;1.73;1.27;;;18.50;99.90;;;;;;4902240;29;20139;-90
2022/06/18 02:25:12;;;;;;;2.08;1.10;;;18.50;99.90;;;;;;4898630;29;20048;-90
2022/06/18 02:27:39;;;;;;;2.55;1.25;;;18.50;99.90;;;;;;4970964;28;20418;-90
2022/06/18 02:30:12;;;;;;;2.22;1.27;;;18.40;99.90;;;;;;4976721;28;20043;-90
2022/06/18 02:32:52;;;;;;;3.83;2.22;;;18.40;99.90;;;;;;4976230;28;20051;-90
2022/06/18 02:35:18;;;;;;;3.80;2.67;;;18.40;99.90;;;;;;4976954;28;20066;-91
2022/06/18 02:37:45;;;;;;;2.67;2.22;;;18.40;99.90;;;;;;4985124;28;20043;-90
2022/06/18 02:40:24;;;;;;;7.88;4.00;;;18.40;99.90;;;;;;4978427;28;20058;-91
2022/06/18 02:42:53;;;;;;;3.58;2.10;;;18.40;99.90;;;;;;4970872;28;20057;-91
2022/06/18 02:45:21;;;;;;;5.35;2.83;;;18.30;99.90;;;;;;4977612;28;20053;-90
2022/06/18 02:47:48;;;;;;;3.33;2.22;;;18.20;99.90;;;;;;4977406;28;20082;-91
2022/06/18 02:50:17;;;;;;;2.60;1.77;;;18.20;99.90;;;;;;4988664;28;20121;-88
2022/06/18 02:52:48;;;;;;;3.55;2.15;;;18.10;99.90;;;;;;4995280;28;20038;-89
2022/06/18 02:55:20;;;;;;;4.90;1.90;;;18.10;99.90;;;;;;4978809;28;20046;-90
2022/06/18 02:57:50;;;;;;;5.68;2.28;;;17.90;99.90;;;;;;4996266;28;20027;-90
2022/06/18 03:00:16;;;;;;;3.90;2.38;;;18.00;99.90;;;;;;4976747;28;20050;-89
2022/06/18 03:02:42;;;;;;;3.53;2.10;;;17.90;99.90;;;;;;4995938;28;20470;-89
2022/06/18 03:05:16;;;;;;;4.93;2.33;;;17.90;99.90;;;;;;4995826;28;20073;-89
2022/06/18 03:07:42;;;;;;;3.72;2.42;;;17.80;99.90;;;;;;4996117;28;20105;-84
2022/06/18 03:12:52;;;;;;;4.38;2.35;;;17.80;99.90;;;;;;4993881;28;20042;-82
2022/06/18 03:15:18;;;;;;;3.47;1.88;;;17.70;99.90;;;;;;4994853;28;20372;-83
2022/06/18 03:17:43;;;;;;;4.25;2.08;;;17.70;99.90;;;;;;4993772;28;20038;-82
2022/06/18 03:20:15;;;;;;;6.65;2.75;;;17.70;99.90;;;;;;4987374;28;20447;-84
2022/06/18 03:22:41;;;;;;;5.38;3.70;;;17.60;99.90;;;;;;4992911;28;20057;-83
2022/06/18 03:25:07;;;;;;;5.28;2.72;;;17.60;99.90;;;;;;4994593;28;20054;-83
2022/06/18 03:27:33;;;;;;;4.82;2.55;;;17.50;99.90;;;;;;4993594;28;20402;-85
2022/06/18 03:29:58;;;;;;;6.07;3.70;;;17.50;99.90;;;;;;4992994;28;20042;-83
2022/06/18 03:32:24;;;;;;;8.23;5.28;;;17.50;99.90;;;;;;4992613;28;20497;-85
2022/06/18 03:34:50;;;;;;;12.23;4.68;;;17.60;99.90;;;;;;4994668;28;20058;-84
2022/06/18 03:37:15;;;;;;;9.05;4.50;;;17.50;99.90;;;;;;4981389;28;20439;-84
2022/06/18 03:39:41;;;;;;;11.95;6.40;;;17.50;99.90;;;;;;4957846;28;20051;-83
2022/06/18 03:42:07;;;;;;;9.30;4.90;;;17.50;99.90;;;;;;4977071;28;20487;-83
2022/06/18 03:44:33;;;;;;;11.30;6.68;;;17.40;99.90;;;;;;4993521;28;20049;-87
2022/06/18 03:47:01;;;;;;;12.35;8.10;;;17.50;99.90;;;;;;4994225;28;20049;-83
2022/06/18 03:49:30;;;;;;;10.10;6.80;;;17.40;99.90;;;;;;4977094;28;20054;-83
2022/06/18 03:51:58;;;;;;;8.48;4.13;;;17.40;99.90;;;;;;4992521;28;20077;-84
2022/06/18 03:54:24;;;;;;;6.25;3.70;;;17.30;99.90;;;;;;4992191;28;20038;-83
2022/06/18 03:56:50;;;;;;;8.90;4.68;;;17.20;99.90;;;;;;4993907;28;20431;-83
2022/06/18 03:59:16;;;;;;;8.00;5.35;;;17.20;99.90;;;;;;4994055;28;20036;-83
2022/06/18 04:01:42;;;;;;;8.00;5.60;;;17.30;99.90;;;;;;4990412;28;20062;-85
2022/06/18 04:04:10;;;;;;;8.10;5.40;;;17.20;99.90;;;;;;4986638;28;20392;-84
2022/06/18 04:06:38;;;;;;;9.85;5.75;;;17.20;99.90;;;;;;4957027;28;20049;-84
2022/06/18 04:09:05;;;;;;;7.72;5.25;;;17.30;99.90;;;;;;4974560;28;20411;-84
2022/06/18 04:11:31;;;;;;;8.25;3.42;;;17.20;99.90;;;;;;4957175;28;20086;-85
2022/06/18 04:13:57;;;;;;;9.57;4.38;;;17.20;99.90;;;;;;4957943;28;20495;-87
2022/06/18 04:16:23;;;;;;;5.43;3.00;;;17.20;99.90;;;;;;4974168;28;20082;-84
2022/06/18 04:18:49;;;;;;;5.13;3.30;;;17.20;99.90;;;;;;4990585;28;20046;-83
2022/06/18 04:21:15;;;;;;;10.30;6.80;;;17.20;99.90;;;;;;4992845;28;20049;-83
2022/06/18 04:23:42;;;;;;;7.35;3.78;;;17.20;99.90;;;;;;4974719;28;20058;-83
2022/06/18 04:26:09;;;;;;;5.53;3.38;;;17.20;99.90;;;;;;4991961;28;20434;-83
2022/06/18 04:28:34;;;;;;;5.97;2.97;;;17.20;99.90;;;;;;4975956;28;20042;-85
2022/06/18 04:31:01;;;;;;;6.07;3.83;;;17.20;99.90;;;;;;4992720;28;20051;-83
2022/06/18 04:33:27;;;;;;;5.45;3.75;;;17.20;99.90;;;;;;4974366;28;20070;-85
2022/06/18 04:35:54;;;;;;;6.47;3.50;;;17.20;99.90;;;;;;4990934;28;20078;-83
2022/06/18 04:38:20;;;;;;;7.47;4.00;;;17.30;99.90;;;;;;4993495;28;20046;-84
2022/06/18 04:40:46;;;;;;;5.13;2.63;;;17.30;99.90;;;;;;4992880;28;20133;-86
2022/06/18 04:43:12;;;;;;;4.72;2.80;;;17.40;99.90;;;;;;4975774;28;20165;-84
2022/06/18 04:45:38;;;;;;;4.40;2.88;;;17.30;99.90;;;;;;4991634;28;20062;-85
2022/06/18 04:48:05;;;;;;;9.80;5.55;;;17.40;99.90;;;;;;4988211;28;20045;-86
2022/06/18 04:50:36;;;;;;;7.38;4.63;;;17.40;99.90;;;;;;4974192;28;20094;-84
2022/06/18 04:53:03;;;;;;;8.38;4.30;;;17.50;99.90;;;;;;4973688;28;20049;-87
2022/06/18 04:55:29;;;;;;;8.77;3.88;;;17.50;99.90;;;;;;4957630;28;20054;-86
2022/06/18 04:57:55;;;;;;;8.05;3.42;;;17.50;99.90;;;;;;4984385;28;20038;-86
2022/06/18 05:00:21;;;;;;;6.80;4.57;;;17.60;99.90;;;;;;4986869;28;20043;-84
2022/06/18 05:02:47;;;;;;;5.63;3.03;;;17.60;99.90;;;;;;4973780;28;20058;-84
2022/06/18 05:05:23;;;;;;;13.13;5.30;;;17.70;99.90;;;;;;4974852;28;20039;-83
2022/06/18 05:07:49;;;;;;;7.70;4.13;;;17.80;99.90;;;;;;4985121;28;20495;-89
2022/06/18 05:10:15;;;;;;;6.57;3.42;;;17.80;99.90;;;;;;4976026;28;20054;-84
2022/06/18 05:12:41;;;;;;;4.10;2.78;;;17.90;99.90;;;;;;4992767;28;20372;-84
2022/06/18 05:15:08;;;;;;;8.48;4.60;;;17.90;99.90;;;;;;4975115;28;20054;-84
2022/06/18 05:17:37;;;;;;;8.50;3.38;;;18.00;99.90;;;;;;4974097;28;20193;-84
2022/06/18 05:20:04;;;;;;;6.50;3.35;;;17.90;99.90;;;;;;4975019;28;20046;-89
2022/06/18 05:22:31;;;;;;;12.60;7.60;;;18.10;99.90;;;;;;4998077;28;20096;-86
2022/06/18 05:24:57;;;;;;;9.95;5.20;;;18.30;99.90;;;;;;4974431;28;20550;-91
2022/06/18 05:27:30;;;;;;;12.80;5.47;;;18.40;99.90;;;;;;4961077;28;20098;-90
2022/06/18 05:29:56;;;;;;;11.75;6.82;;;18.40;99.90;;;;;;4961923;28;20053;-92
2022/06/18 05:32:22;;;;;;;5.88;4.15;;;18.50;99.90;;;;;;4977489;28;20114;-91
2022/06/18 05:34:48;;;;;;;10.65;4.75;;;18.50;99.90;;;;;;4963070;28;20051;-90
2022/06/18 05:37:17;;;;;;;9.90;6.75;;;18.60;99.90;;;;;;4986652;28;20039;-91
2022/06/18 05:39:42;;;;;;;8.75;5.00;;;18.70;99.90;;;;;;4988853;28;20074;-91
2022/06/18 05:42:09;;;;;;;12.60;7.15;;;18.80;99.90;;;;;;4997180;28;20068;-91
2022/06/18 05:44:37;;;;;;;13.13;6.03;;;19.00;99.90;;;;;;4996820;28;20049;-92
2022/06/18 05:47:13;;;;;;;8.57;6.00;;;19.00;99.90;;;;;;4997194;28;20085;-91
2022/06/18 05:49:38;;;;;;;;;;;19.10;99.90;;;;;;4996090;28;20042;-92
2022/06/18 05:52:04;;;;;;;9.88;5.10;;;19.20;99.90;;;;;;4980463;28;20073;-92
2022/06/18 05:54:30;;;;;;;12.95;6.20;;;19.20;99.90;;;;;;4979601;28;20053;-92
2022/06/18 05:56:55;;;;;;;9.20;5.13;;;19.40;99.90;;;;;;4959977;28;20061;-90
2022/06/18 05:59:29;;;;;;;9.05;4.97;;;19.50;99.90;;;;;;4977986;28;20129;-87
2022/06/18 06:08:27;;;;;;;7.00;3.20;;;19.70;99.90;;;;;;4936005;29;20507;-88
2022/06/18 06:14:12;;;;;;;10.38;5.22;;;20.00;99.90;;;;;;4906261;29;20048;-89
2022/06/18 06:16:57;;;;;;;4.70;3.35;;;20.10;99.90;;;;;;4906930;28;20154;-91
2022/06/18 06:37:05;;;;;;;;;;;21.00;99.90;;;;;;5289401;23;20058;-91
2022/06/18 06:39:31;;;;;;;8.88;4.32;;;21.00;99.90;;;;;;4996716;28;19965;-86
2022/06/18 06:42:15;;;;;;;13.68;3.97;;;21.10;99.90;;;;;;4985478;23;20089;-90
2022/06/18 06:44:40;;;;;;;8.50;3.90;;;21.30;99.90;;;;;;4976111;28;20061;-88
2022/06/18 06:47:06;;;;;;;13.55;4.97;;;21.30;99.90;;;;;;4959064;28;20043;-86
2022/06/18 06:49:32;;;;;;;6.65;2.60;;;21.30;99.90;;;;;;4959091;28;20038;-86
2022/06/18 06:59:35;;;;;;;9.88;5.25;;;21.50;99.90;;;;;;4975514;28;20058;-88
2022/06/18 07:02:43;;;;;;;8.95;2.50;;;21.60;99.90;;;;;;4963077;23;20047;-88
2022/06/18 07:05:26;;;;;;;8.13;2.40;;;21.60;99.90;;;;;;4954440;29;20051;-87
2022/06/18 07:08:00;;;;;;;11.65;2.90;;;21.50;99.90;;;;;;4877670;29;20051;-88
2022/06/18 07:10:39;;;;;;;4.75;1.88;;;21.60;99.90;;;;;;4956191;29;20047;-87
2022/06/18 07:13:11;;;;;;;7.75;2.70;;;21.50;99.90;;;;;;4955671;29;20396;-87
2022/06/18 07:15:43;;;;;;;6.07;2.03;;;21.70;99.90;;;;;;4938859;29;20578;-86
2022/06/18 07:18:26;;;;;;;6.97;2.10;;;21.70;99.90;;;;;;4986235;23;20507;-88
2022/06/18 07:20:51;;;;;;;5.45;1.55;;;21.60;99.90;;;;;;4958194;28;20043;-86
2022/06/18 07:26:34;;;;;;;8.23;1.85;;;22.10;99.90;;;;;;5050908;23;20411;-91
2022/06/18 07:29:00;;;;;;;3.47;1.80;;;22.00;99.90;;;;;;4955761;28;20055;-90
2022/06/18 07:31:28;;;;;;;4.30;1.90;;;22.20;99.90;;;;;;4976858;28;20047;-87
2022/06/18 07:33:55;;;;;;;5.65;1.67;;;22.30;99.90;;;;;;4960748;28;20053;-92
2022/06/18 07:36:21;;;;;;;3.78;1.08;;;22.40;99.90;;;;;;4977440;28;20447;-92
2022/06/18 07:42:28;;;;;;;6.38;1.50;;;22.70;99.90;;;;;;4978291;28;20041;-91
2022/06/18 07:44:59;;;;;;;3.60;1.23;;;22.90;99.90;;;;;;4959344;28;20046;-87
2022/06/18 07:47:25;;;;;;;4.68;1.38;;;23.20;99.90;;;;;;4974353;28;20042;-91
2022/06/18 07:49:51;;;;;;;4.82;1.27;;;23.00;99.90;;;;;;4957348;28;20047;-89
2022/06/18 07:52:17;;;;;;;4.22;1.13;;;23.10;99.90;;;;;;4956839;28;20069;-90
2022/06/18 07:54:43;;;;;;;3.92;1.27;;;23.10;99.90;;;;;;4974834;28;20051;-91
2022/06/18 07:57:09;;;;;;;2.83;1.10;;;23.10;99.90;;;;;;4975107;28;20380;-91
2022/06/18 07:59:35;;;;;;;4.07;1.20;;;23.30;99.90;;;;;;4974894;28;20098;-89
2022/06/18 08:02:01;;;;;;;5.55;0.95;;;23.20;99.90;;;;;;4957340;28;20051;-89
2022/06/18 08:04:27;;;;;;;1.90;0.98;;;23.40;99.90;;;;;;4957427;28;20047;-89
2022/06/18 08:06:53;;;;;;;5.03;0.68;;;23.50;99.90;;;;;;4974584;28;20042;-88
2022/06/18 08:09:19;;;;;;;2.45;0.60;;;23.30;99.90;;;;;;4974522;28;20050;-90
2022/06/18 08:11:45;;;;;;;2.92;0.60;;;23.30;99.90;;;;;;4973714;28;20082;-91
2022/06/18 08:14:12;;;;;;;4.88;0.70;;;23.50;99.90;;;;;;4957770;28;20082;-86
2022/06/18 08:16:37;;;;;;;2.45;0.80;;;23.40;99.90;;;;;;4957114;28;20551;-86
2022/06/18 08:19:03;;;;;;;2.58;0.70;;;23.50;99.90;;;;;;4957026;28;20181;-85
2022/06/18 08:21:35;;;;;;;2.45;0.80;;;23.30;99.90;;;;;;4957098;28;20058;-85
2022/06/18 08:24:09;;;;;;;2.00;0.73;;;23.50;99.90;;;;;;4956830;28;20054;-86
2022/06/18 08:26:38;;;;;;;2.75;0.63;;;23.60;99.90;;;;;;4973947;28;20061;-87
2022/06/18 08:29:06;;;;;;;1.40;0.40;;;23.70;99.90;;;;;;4956925;28;20067;-85
2022/06/18 08:31:32;;;;;;;0.93;0.40;;;23.50;99.90;;;;;;4973125;28;20443;-87
2022/06/18 08:33:58;;;;;;;0.52;0.30;;;23.60;99.90;;;;;;4974373;28;20051;-85
2022/06/18 08:36:25;;;;;;;1.45;0.70;;;23.70;99.90;;;;;;4973978;28;20086;-86
2022/06/18 08:38:51;;;;;;;1.75;0.40;;;23.80;99.90;;;;;;4956876;28;20050;-86
2022/06/18 08:41:48;;;;;;;2.47;0.47;;;23.60;99.90;;;;;;4973140;28;20109;-88
2022/06/18 08:44:52;;;;;;;0.68;0.38;;;23.50;99.90;;;;;;4956693;28;20054;-86
2022/06/18 08:47:34;;;;;;;3.65;0.50;;;23.70;99.90;;;;;;4957431;28;20104;-86
2022/06/18 08:50:22;;;;;;;1.13;0.30;;;23.90;99.90;;;;;;4974367;28;20050;-86
2022/06/18 08:52:51;;;;;;;1.85;0.30;;;23.60;99.90;;;;;;4956567;28;20102;-86
2022/06/18 08:55:37;;;;;;;3.58;0.60;;;23.70;99.90;;;;;;4956506;28;20482;-86
2022/06/18 08:58:18;;;;;;;0.90;0.30;;;24.00;99.90;;;;;;4974057;28;20046;-88
2022/06/18 09:01:00;;;;;;;0.70;0.30;;;23.90;99.90;;;;;;4974042;28;20047;-86
2022/06/18 09:03:58;;;;;;;3.00;0.30;;;23.80;99.90;;;;;;4958752;28;20086;-85
2022/06/18 09:06:37;;;;;;;1.05;0.38;;;23.90;99.90;;;;;;4960410;28;20053;-86
2022/06/18 09:09:17;;;;;;;1.00;0.30;;;24.00;99.90;;;;;;4960630;28;20062;-86
2022/06/18 09:12:06;;;;;;;2.40;0.38;;;24.00;99.90;;;;;;4977577;28;20046;-86
2022/06/18 09:15:02;;;;;;;1.73;0.40;;;24.10;99.90;;;;;;4960580;28;20047;-87
2022/06/18 09:17:47;;;;;;;4.45;0.90;;;24.00;99.90;;;;;;4960815;28;20534;-85
2022/06/18 09:20:29;;;;;;;3.00;0.40;;;24.30;99.90;;;;;;4961022;28;20061;-85
2022/06/18 09:23:04;;;;;;;2.63;0.40;;;24.10;99.90;;;;;;4960369;28;20133;-86
2022/06/18 09:25:38;;;;;;;3.45;0.50;;;24.10;99.90;;;;;;4960126;28;20059;-86
2022/06/18 09:28:12;;;;;;;1.80;0.30;;;23.60;99.90;;;;;;4959994;28;20142;-86
2022/06/18 09:30:50;;;;;;;2.88;0.30;;;24.20;99.90;;;;;;4977407;28;20043;-86
2022/06/18 09:33:32;;;;;;;3.47;0.55;;;24.20;99.90;;;;;;4960238;28;20126;-86
2022/06/18 09:36:14;;;;;;;0.60;0.30;;;24.30;99.90;;;;;;4977512;28;20145;-87
2022/06/18 09:38:55;;;;;;;0.98;0.38;;;24.10;99.90;;;;;;4977090;28;20085;-86
2022/06/18 09:41:31;;;;;;;2.40;0.60;;;24.30;99.90;;;;;;4977141;28;20046;-86
2022/06/18 09:44:07;;;;;;;1.42;0.35;;;24.30;99.90;;;;;;4959847;28;20082;-85
2022/06/18 09:46:41;;;;;;;3.60;0.47;;;24.30;99.90;;;;;;4959903;28;20047;-85
2022/06/18 09:49:07;;;;;;;1.27;0.43;;;24.30;99.90;;;;;;4977113;28;20125;-85
2022/06/18 09:52:04;;;;;;;1.20;0.40;;;24.20;99.90;;;;;;4959916;28;20133;-87
2022/06/18 09:54:53;;;;;;;2.30;0.40;;;24.40;99.90;;;;;;4959963;28;20053;-86
2022/06/18 09:57:23;;;;;;;3.83;0.47;;;24.80;99.90;;;;;;4960087;28;20054;-87
2022/06/18 10:00:04;;;;;;;1.33;0.20;;;25.00;99.90;;;;;;4981916;28;20042;-88
2022/06/18 10:02:33;;;;;;;1.55;0.13;;;24.90;99.90;;;;;;4960219;28;20403;-87
2022/06/18 10:07:51;;;;;;;1.17;0.40;;;25.20;99.90;;;;;;4983954;28;20046;-86
2022/06/18 10:10:25;;;;;;;1.30;0.50;;;25.40;99.90;;;;;;4964304;28;20049;-87
2022/06/18 10:12:54;;;;;;;3.53;0.52;;;25.20;99.90;;;;;;4984859;28;20091;-86
2022/06/18 10:15:22;;;;;;;2.60;0.30;;;25.30;99.90;;;;;;4960624;28;20042;-86
2022/06/18 10:18:14;;;;;;;0.95;0.30;;;25.30;99.90;;;;;;4960063;28;20062;-86
2022/06/18 10:21:31;;;;;;;0.52;0.25;;;25.80;99.90;;;;;;4976571;28;20042;-86
2022/06/18 10:24:19;;;;;;;1.13;0.40;;;25.50;99.90;;;;;;4863849;29;20063;-86
2022/06/18 10:27:04;;;;;;;3.70;0.40;;;25.60;99.90;;;;;;4879136;29;20057;-86
2022/06/18 10:29:51;;;;;;;0.95;0.20;;;25.50;99.90;;;;;;4879424;29;20136;-86
2022/06/18 10:32:17;;;;;;;0.43;0.10;;;25.70;99.90;;;;;;4863645;29;20045;-86
2022/06/18 10:35:33;;;;;;;1.55;0.20;;;25.90;99.90;;;;;;4879036;29;20639;-87
2022/06/18 10:38:11;;;;;;;0.67;0.20;;;26.00;99.90;;;;;;4863016;29;20057;-86
2022/06/18 10:40:43;;;;;;;1.42;0.20;;;26.10;99.90;;;;;;4879106;29;20357;-86
2022/06/18 10:43:16;;;;;;;2.85;0.35;;;25.80;99.90;;;;;;4863667;29;20057;-86
2022/06/18 10:45:53;;;;;;;1.30;0.30;;;25.80;99.90;;;;;;4879134;29;20057;-87
2022/06/18 10:48:24;;;;;;;0.90;0.20;;;26.10;99.90;;;;;;4878999;29;20048;-86
2022/06/18 10:50:53;;;;;;;0.90;0.10;;;26.10;99.90;;;;;;4863258;29;20060;-86
2022/06/18 10:53:22;;;;;;;0.80;0.30;;;26.10;99.90;;;;;;4879111;29;20068;-87
2022/06/18 10:56:00;;;;;;;1.23;0.20;;;25.90;99.20;;;;;;4878556;29;20057;-86
2022/06/18 10:58:27;;;;;;;0.98;0.20;;;26.00;99.90;;;;;;4884229;28;20057;-86
2022/06/18 11:00:57;;;;;;;0.52;0.20;;;26.00;99.90;;;;;;4958598;28;20035;-86
2022/06/18 11:03:28;;;;;;;1.85;0.30;;;25.90;99.90;;;;;;4958242;28;20058;-85
2022/06/18 11:05:55;;;;;;;1.42;0.30;;;25.60;99.90;;;;;;4975891;28;20046;-86
2022/06/18 11:08:27;;;;;;;1.50;0.30;;;25.60;99.90;;;;;;4975732;28;20133;-86
2022/06/18 11:11:01;;;;;;;1.00;0.32;;;25.30;99.90;;;;;;4958263;28;20046;-85
2022/06/18 11:13:27;;;;;;;0.52;0.20;;;25.50;99.90;;;;;;4975685;28;20062;-85
2022/06/18 11:16:21;;;;;;;0.73;0.20;;;25.40;99.90;;;;;;4958283;28;20495;-85
2022/06/18 11:18:49;;;;;;;2.15;0.80;;;25.70;99.90;;;;;;4958233;28;20039;-86
2022/06/18 11:21:25;;;;;;;2.88;0.20;;;25.60;98.20;;;;;;4958038;28;20042;-86
2022/06/18 11:23:58;;;;;;;2.58;0.30;;;25.40;99.90;;;;;;4957837;28;20058;-86
2022/06/18 11:26:26;;;;;;;0.98;0.47;;;25.20;99.90;;;;;;4956735;28;20101;-86
2022/06/18 11:28:55;;;;;;;3.33;0.75;;;25.20;99.70;;;;;;4973845;28;20062;-86
2022/06/18 11:31:25;;;;;;;3.03;0.50;;;25.30;99.30;;;;;;4975443;28;20403;-87
2022/06/18 11:34:01;;;;;;;1.30;0.20;;;25.40;98.40;;;;;;4957700;28;20086;-86
2022/06/18 11:36:46;;;;;;;2.33;0.30;;;25.60;97.40;;;;;;4975276;28;20125;-86
2022/06/18 11:39:33;;;;;;;1.48;0.20;;;25.50;97.50;;;;;;4974862;28;20043;-86
2022/06/18 11:42:08;;;;;;;0.75;0.22;;;25.10;98.10;;;;;;4958378;28;20047;-88
2022/06/18 11:44:48;;;;;;;0.52;0.20;;;25.40;97.40;;;;;;4958376;28;20047;-86
2022/06/18 11:47:28;;;;;;;2.33;0.22;;;25.50;97.20;;;;;;4957745;28;20488;-86
2022/06/18 11:50:07;;;;;;;2.30;0.40;;;25.80;96.70;;;;;;4975092;28;20074;-86
2022/06/18 11:52:46;;;;;;;1.92;0.30;;;25.80;95.40;;;;;;4957466;28;20058;-86
2022/06/18 11:55:23;;;;;;;1.10;0.20;;;25.80;96.00;;;;;;4957596;28;20082;-87
2022/06/18 11:58:09;;;;;;;2.35;0.20;;;25.80;96.40;;;;;;4974646;28;20126;-86
2022/06/18 12:01:12;;;;;;;2.92;0.38;;;25.90;95.20;;;;;;4957667;28;20082;-85
2022/06/18 12:03:41;;;;;;;2.25;0.30;;;25.60;96.00;;;;;;4957524;28;20051;-86
2022/06/18 12:06:07;;;;;;;4.72;0.38;;;25.80;95.50;;;;;;4974626;28;20052;-86
2022/06/18 12:08:33;;;;;;;1.88;0.10;;;25.90;95.90;;;;;;4974394;28;20114;-86
2022/06/18 12:11:33;;;;;;;0.40;0.20;;;25.50;95.50;;;;;;4957529;28;20464;-87
2022/06/18 12:14:14;;;;;;;2.00;0.30;;;25.50;96.10;;;;;;4957088;28;20403;-85
2022/06/18 12:16:52;;;;;;;1.85;0.20;;;25.60;95.70;;;;;;4973258;28;20427;-86
2022/06/18 12:19:30;;;;;;;3.40;0.32;;;25.60;95.50;;;;;;4974228;28;20050;-86
2022/06/18 12:22:21;;;;;;;1.52;0.30;;;25.50;95.60;;;;;;4957687;28;20129;-86
2022/06/18 12:25:06;;;;;;;2.35;0.35;;;25.40;95.60;;;;;;4972900;28;20057;-86
2022/06/18 12:27:43;;;;;;;4.20;0.70;;;25.60;95.90;;;;;;4974084;28;20051;-87
2022/06/18 12:30:21;;;;;;;3.20;0.40;;;25.80;95.50;;;;;;4974429;28;20436;-86
2022/06/18 12:32:56;;;;;;;2.45;0.30;;;25.60;95.70;;;;;;4956938;28;20046;-86
2022/06/18 12:35:37;;;;;;;2.63;0.40;;;25.50;95.60;;;;;;4956923;28;20070;-86
2022/06/18 12:38:18;;;;;;;3.08;0.40;;;25.60;95.00;;;;;;4973735;28;20181;-86
2022/06/18 12:41:10;;;;;;;3.45;0.57;;;25.50;95.70;;;;;;4974313;28;21024;-88
2022/06/18 12:44:03;;;;;;;1.98;0.30;;;25.50;94.90;;;;;;4974142;28;20039;-86
2022/06/18 12:46:46;;;;;;;2.40;0.40;;;25.40;94.40;;;;;;4974134;28;20047;-87
2022/06/18 12:49:40;;;;;;;5.07;0.75;;;25.40;93.80;;;;;;4956641;28;20062;-86
2022/06/18 12:52:44;;;;;;;3.50;0.40;;;25.50;92.70;;;;;;4877058;29;20088;-85
2022/06/18 12:55:18;;;;;;;0.93;0.20;;;25.20;93.20;;;;;;4788381;29;20073;-86
2022/06/18 12:57:52;;;;;;;4.13;0.40;;;25.10;92.30;;;;;;4788538;29;20059;-86
2022/06/18 13:00:32;;;;;;;3.00;0.35;;;24.80;92.70;;;;;;4803491;29;20539;-86
2022/06/18 13:03:18;;;;;;;2.72;0.30;;;24.70;93.70;;;;;;4788717;29;20113;-88
2022/06/18 13:05:48;;;;;;;3.50;0.32;;;25.00;92.30;;;;;;4789716;29;20497;-87
2022/06/18 13:08:51;;;;;;;3.15;0.40;;;24.90;92.00;;;;;;4790468;29;20065;-87
2022/06/18 13:11:23;;;;;;;3.47;0.32;;;24.90;92.50;;;;;;4788873;29;20086;-88
2022/06/18 13:13:57;;;;;;;2.10;0.40;;;25.30;91.80;;;;;;4788935;29;20066;-87
2022/06/18 13:16:34;;;;;;;4.03;0.50;;;25.20;91.30;;;;;;4803794;29;20059;-87
2022/06/18 13:19:20;;;;;;;1.77;0.40;;;25.20;91.80;;;;;;4789335;29;20090;-87
2022/06/18 13:21:47;;;;;;;2.25;0.38;;;25.00;91.10;;;;;;4788628;29;20070;-88
2022/06/18 13:30:38;;;;;;;3.10;0.43;;;24.80;91.30;;;;;;4852574;29;20052;-87
2022/06/18 13:33:28;;;;;;;3.40;0.30;;;24.50;92.00;;;;;;4909540;29;20099;-88
2022/06/18 13:36:20;;;;;;;3.45;0.63;;;24.40;90.70;;;;;;4906026;29;20075;-87
2022/06/18 13:42:47;;;;;;;4.05;0.45;;;23.70;92.60;;;;;;4914334;29;20092;-88
2022/06/18 13:45:31;;;;;;;2.35;0.50;;;23.90;93.20;;;;;;4898159;29;20044;-88
2022/06/18 13:48:16;;;;;;;3.53;0.47;;;24.10;92.20;;;;;;4898620;29;20056;-89
2022/06/18 13:50:44;;;;;;;2.20;0.40;;;24.20;92.00;;;;;;4901537;29;20111;-88
2022/06/18 13:53:10;;;;;;;2.78;0.45;;;24.20;91.90;;;;;;4917317;29;20092;-89
2022/06/18 13:55:38;;;;;;;1.92;0.32;;;23.90;92.60;;;;;;4901238;29;20052;-89
2022/06/18 13:58:20;;;;;;;2.20;0.35;;;23.80;92.00;;;;;;4917395;29;20052;-90
2022/06/18 14:00:47;;;;;;;2.28;0.40;;;24.00;92.80;;;;;;4916989;29;20076;-88
2022/06/18 14:03:23;;;;;;;4.22;0.50;;;24.00;92.20;;;;;;4901391;29;20055;-88
2022/06/18 14:05:58;;;;;;;3.40;0.40;;;23.90;91.20;;;;;;4906116;28;20048;-88
2022/06/18 14:08:31;;;;;;;4.68;0.50;;;23.80;92.10;;;;;;4976675;28;20042;-88
2022/06/18 14:11:06;;;;;;;2.85;0.65;;;23.70;91.90;;;;;;4959292;28;20051;-90
2022/06/18 14:13:48;;;;;;;2.08;0.30;;;23.80;90.80;;;;;;4959279;28;20046;-88
2022/06/18 14:16:32;;;;;;;3.60;0.40;;;23.30;91.10;;;;;;4959198;28;20475;-87